createdAt,value
2022-11-21T00:00:57.995Z,6.41
2022-11-21T00:03:24.847Z,6.42
2022-11-21T00:05:51.679Z,6.43
2022-11-21T00:08:21.181Z,6.46
2022-11-21T00:10:48.624Z,6.48
2022-11-21T00:13:20.826Z,6.51
2022-11-21T00:15:48.084Z,6.51
2022-11-21T00:18:15.259Z,6.55
2022-11-21T00:20:43.454Z,6.58
2022-11-21T00:23:11.078Z,6.64
2022-11-21T00:25:38.989Z,6.69
2022-11-21T00:28:05.834Z,6.79
2022-11-21T00:30:32.700Z,6.85
2022-11-21T00:32:59.701Z,6.90
2022-11-21T00:35:26.823Z,6.96
2022-11-21T00:37:53.520Z,7.00
2022-11-21T00:40:20.273Z,7.06
2022-11-21T00:42:47.019Z,7.09
2022-11-21T00:45:13.827Z,7.13
2022-11-21T00:47:40.507Z,7.12
2022-11-21T00:50:07.448Z,7.11
2022-11-21T00:52:34.214Z,7.09
2022-11-21T00:55:00.955Z,7.07
2022-11-21T00:57:27.669Z,7.04
2022-11-21T00:59:54.409Z,7.01
2022-11-21T01:02:21.265Z,6.98
2022-11-21T01:04:48.001Z,6.97
2022-11-21T01:07:15.352Z,6.97
2022-11-21T01:09:42.110Z,6.97
2022-11-21T01:12:08.813Z,6.99
2022-11-21T01:14:35.574Z,7.04
2022-11-21T01:17:02.274Z,7.07
2022-11-21T01:19:29.019Z,7.11
2022-11-21T01:21:55.723Z,7.14
2022-11-21T01:24:22.380Z,7.15
2022-11-21T01:26:51.132Z,7.15
2022-11-21T01:29:18.070Z,7.14
2022-11-21T01:31:44.762Z,7.13
2022-11-21T01:34:11.725Z,7.13
2022-11-21T01:36:38.432Z,7.13
2022-11-21T01:39:07.222Z,7.13
2022-11-21T01:41:36.202Z,7.12
2022-11-21T01:44:07.199Z,7.12
2022-11-21T01:46:33.951Z,7.13
2022-11-21T01:49:05.073Z,7.12
2022-11-21T01:51:38.122Z,7.12
2022-11-21T01:54:28.175Z,7.13
2022-11-21T01:57:04.798Z,7.15
2022-11-21T01:59:37.650Z,7.15
2022-11-21T02:02:07.522Z,7.14
2022-11-21T02:04:36.481Z,7.16
2022-11-21T02:07:06.543Z,7.18
2022-11-21T02:09:36.101Z,7.19
2022-11-21T02:12:08.216Z,7.21
2022-11-21T02:14:36.318Z,7.23
2022-11-21T02:17:06.962Z,7.24
2022-11-21T02:19:57.161Z,7.26
2022-11-21T02:22:40.914Z,7.27
2022-11-21T02:25:10.181Z,7.28
2022-11-21T02:27:36.935Z,7.29
2022-11-21T02:30:06.590Z,7.31
2022-11-21T02:32:37.370Z,7.33
2022-11-21T02:35:04.758Z,7.35
2022-11-21T02:37:33.649Z,7.42
2022-11-21T02:40:03.393Z,7.44
2022-11-21T02:42:36.817Z,7.45
2022-11-21T02:45:09.291Z,7.47
2022-11-21T02:47:38.806Z,7.49
2022-11-21T02:50:25.688Z,7.50
2022-11-21T02:52:52.404Z,7.53
2022-11-21T02:55:19.212Z,7.57
2022-11-21T02:57:46.000Z,7.61
2022-11-21T03:02:40.134Z,7.66
2022-11-21T03:05:09.273Z,7.67
2022-11-21T03:07:36.096Z,7.66
2022-11-21T03:10:03.069Z,7.64
2022-11-21T03:12:30.322Z,7.64
2022-11-21T03:14:58.454Z,7.62
2022-11-21T03:17:25.193Z,7.60
2022-11-21T03:19:51.917Z,7.60
2022-11-21T03:22:18.690Z,7.57
2022-11-21T03:24:45.446Z,7.57
2022-11-21T03:27:12.166Z,7.56
2022-11-21T03:29:38.910Z,7.59
2022-11-21T03:32:05.794Z,7.65
2022-11-21T03:34:32.913Z,7.71
2022-11-21T03:36:59.686Z,7.75
2022-11-21T03:39:26.391Z,7.78
2022-11-21T03:41:53.106Z,7.82
2022-11-21T03:44:19.781Z,7.86
2022-11-21T03:46:49.755Z,7.87
2022-11-21T03:49:16.928Z,7.91
2022-11-21T03:51:44.865Z,7.95
2022-11-21T03:54:12.133Z,8.01
2022-11-21T03:56:41.829Z,8.05
2022-11-21T03:59:08.571Z,8.07
2022-11-21T04:01:36.801Z,8.08
2022-11-21T04:04:05.572Z,8.10
2022-11-21T04:06:32.601Z,8.16
2022-11-21T04:08:59.351Z,8.21
2022-11-21T04:11:26.181Z,8.28
2022-11-21T04:13:53.203Z,8.38
2022-11-21T04:16:20.161Z,8.47
2022-11-21T04:18:47.019Z,8.54
2022-11-21T04:21:13.763Z,8.60
2022-11-21T04:23:40.443Z,8.65
2022-11-21T04:26:07.181Z,8.68
2022-11-21T04:28:34.079Z,8.70
2022-11-21T04:31:10.025Z,8.77
2022-11-21T04:33:37.486Z,8.84
2022-11-21T04:36:05.377Z,8.90
2022-11-21T04:38:32.106Z,8.98
2022-11-21T04:40:58.850Z,9.05
2022-11-21T04:43:25.635Z,9.11
2022-11-21T04:45:52.445Z,9.15
2022-11-21T04:48:19.286Z,9.21
2022-11-21T04:50:46.756Z,9.25
2022-11-21T04:53:14.836Z,9.27
2022-11-21T04:59:32.100Z,9.13
2022-11-21T05:02:03.569Z,9.05
2022-11-21T05:04:37.367Z,8.99
2022-11-21T05:11:25.405Z,8.91
2022-11-21T05:14:51.353Z,8.88
2022-11-21T05:17:27.197Z,8.81
2022-11-21T05:19:55.979Z,8.73
2022-11-21T05:22:22.710Z,8.64
2022-11-21T05:24:50.281Z,8.55
2022-11-21T05:27:16.986Z,8.48
2022-11-21T05:29:44.792Z,8.42
2022-11-21T05:32:11.483Z,8.36
2022-11-21T05:34:38.176Z,8.32
2022-11-21T05:37:05.729Z,8.32
2022-11-21T05:39:32.448Z,8.31
2022-11-21T05:42:02.979Z,8.31
2022-11-21T05:44:30.563Z,8.31
2022-11-21T05:46:57.647Z,8.32
2022-11-21T05:49:24.421Z,8.33
2022-11-21T05:51:51.122Z,8.33
2022-11-21T05:54:17.922Z,8.34
2022-11-21T05:56:44.612Z,8.35
2022-11-21T05:59:12.078Z,8.35
2022-11-21T06:01:57.534Z,8.34
2022-11-21T06:04:24.351Z,8.32
2022-11-21T06:06:51.062Z,8.31
2022-11-21T06:09:17.777Z,8.31
2022-11-21T06:11:44.573Z,8.30
2022-11-21T06:14:11.244Z,8.27
2022-11-21T06:16:37.974Z,8.29
2022-11-21T06:19:04.767Z,8.31
2022-11-21T06:21:34.255Z,8.29
2022-11-21T06:24:00.977Z,8.28
2022-11-21T06:26:28.298Z,8.30
2022-11-21T06:28:55.798Z,8.30
2022-11-21T06:31:25.444Z,8.31
2022-11-21T06:33:56.847Z,8.30
2022-11-21T06:36:24.078Z,8.28
2022-11-21T06:38:53.034Z,8.25
2022-11-21T06:41:22.542Z,8.25
2022-11-21T06:43:49.431Z,8.23
2022-11-21T06:46:16.827Z,8.22
2022-11-21T06:48:44.166Z,8.21
2022-11-21T06:51:24.722Z,8.20
2022-11-21T06:53:56.198Z,8.16
2022-11-21T06:56:24.401Z,8.14
2022-11-21T06:58:51.170Z,8.13
2022-11-21T07:01:18.380Z,8.13
2022-11-21T07:03:45.662Z,8.12
2022-11-21T07:06:12.521Z,8.10
2022-11-21T07:08:41.212Z,8.10
2022-11-21T07:11:24.681Z,8.08
2022-11-21T07:13:51.872Z,8.03
2022-11-21T07:16:18.601Z,7.99
2022-11-21T07:18:45.629Z,8.00
2022-11-21T07:21:12.361Z,8.02
2022-11-21T07:23:39.455Z,8.03
2022-11-21T07:26:08.591Z,8.07
2022-11-21T07:28:35.484Z,8.12
2022-11-21T07:31:08.526Z,8.17
2022-11-21T07:33:38.570Z,8.19
2022-11-21T07:36:05.689Z,8.24
2022-11-21T07:38:32.412Z,8.25
2022-11-21T07:40:59.139Z,8.27
2022-11-21T07:43:25.848Z,8.25
2022-11-21T07:45:52.556Z,8.22
2022-11-21T07:48:19.328Z,8.19
2022-11-21T07:50:46.053Z,8.18
2022-11-21T07:53:13.273Z,8.14
2022-11-21T07:55:40.942Z,8.11
2022-11-21T07:58:10.989Z,8.10
2022-11-21T08:00:40.350Z,8.08
2022-11-21T08:03:07.380Z,8.09
2022-11-21T08:05:38.088Z,8.10
2022-11-21T08:08:06.260Z,8.12
2022-11-21T08:10:33.669Z,8.11
2022-11-21T08:13:00.547Z,8.11
2022-11-21T08:15:27.281Z,8.11
2022-11-21T08:17:53.957Z,8.13
2022-11-21T08:20:20.768Z,8.15
2022-11-21T08:22:47.517Z,8.18
2022-11-21T08:25:15.536Z,8.19
2022-11-21T08:27:42.504Z,8.19
2022-11-21T08:30:11.648Z,8.20
2022-11-21T08:32:38.450Z,8.20
2022-11-21T08:35:08.277Z,8.21
2022-11-21T08:37:35.031Z,8.23
2022-11-21T08:40:02.495Z,8.24
2022-11-21T08:42:29.242Z,8.27
2022-11-21T08:44:56.115Z,8.29
2022-11-21T08:47:22.891Z,8.29
2022-11-21T08:49:49.983Z,8.29
2022-11-21T08:52:17.568Z,8.28
2022-11-21T08:54:45.586Z,8.26
2022-11-21T08:57:12.711Z,8.24
2022-11-21T08:59:39.732Z,8.22
2022-11-21T09:02:06.944Z,8.21
2022-11-21T09:04:33.813Z,8.22
2022-11-21T09:07:02.074Z,8.24
2022-11-21T09:09:28.969Z,8.26
2022-11-21T09:11:55.752Z,8.24
2022-11-21T09:14:41.269Z,8.24
2022-11-21T09:17:31.939Z,8.27
2022-11-21T09:19:59.070Z,8.31
2022-11-21T09:22:28.495Z,8.32
2022-11-21T09:24:56.241Z,8.32
2022-11-21T09:27:22.921Z,8.34
2022-11-21T09:29:54.122Z,8.36
2022-11-21T09:32:22.331Z,8.37
2022-11-21T09:34:49.158Z,8.37
2022-11-21T09:37:15.931Z,8.39
2022-11-21T09:39:42.645Z,8.37
2022-11-21T09:42:24.340Z,8.36
2022-11-21T09:45:04.957Z,8.35
2022-11-21T09:47:46.173Z,8.36
2022-11-21T09:50:12.853Z,8.34
2022-11-21T09:53:12.812Z,8.34
2022-11-21T09:55:43.085Z,8.34
2022-11-21T09:58:32.713Z,8.34
2022-11-21T10:00:59.890Z,8.34
2022-11-21T10:03:30.963Z,8.33
2022-11-21T10:06:29.428Z,8.31
2022-11-21T10:09:01.821Z,8.20
2022-11-21T10:12:13.447Z,8.04
2022-11-21T10:14:58.530Z,7.75
2022-11-21T10:17:38.974Z,7.58
2022-11-21T10:20:34.858Z,7.43
2022-11-21T10:23:27.540Z,7.23
2022-11-21T10:26:04.578Z,6.97
2022-11-21T10:29:15.733Z,6.80
2022-11-21T10:31:43.321Z,6.67
2022-11-21T10:34:19.124Z,6.55
2022-11-21T10:36:51.611Z,6.43
2022-11-21T10:39:32.815Z,6.37
2022-11-21T10:42:18.105Z,6.32
2022-11-21T10:45:07.474Z,6.31
2022-11-21T10:47:37.871Z,6.25
2022-11-21T10:50:10.742Z,6.24
2022-11-21T10:52:51.115Z,6.26
2022-11-21T10:55:18.659Z,6.26
2022-11-21T10:57:54.360Z,6.25
2022-11-21T11:00:25.672Z,6.23
2022-11-21T11:02:55.467Z,6.24
2022-11-21T11:05:27.307Z,6.24
2022-11-21T11:08:14.919Z,6.22
2022-11-21T11:11:01.833Z,6.24
2022-11-21T11:13:46.891Z,6.29
2022-11-21T11:16:22.375Z,6.30
2022-11-21T11:18:58.672Z,6.30
2022-11-21T11:21:31.251Z,6.30
2022-11-21T11:24:28.309Z,6.25
2022-11-21T11:27:02.685Z,6.23
2022-11-21T11:29:32.354Z,6.24
2022-11-21T11:31:59.181Z,6.24
2022-11-21T11:34:38.898Z,6.26
2022-11-21T11:37:11.868Z,6.29
2022-11-21T11:40:06.192Z,6.36
2022-11-21T11:43:27.064Z,6.38
2022-11-21T11:46:34.504Z,6.37
2022-11-21T11:49:24.870Z,6.40
2022-11-21T11:52:04.228Z,6.42
2022-11-21T11:54:47.669Z,6.46
2022-11-21T11:57:17.478Z,6.51
2022-11-21T11:59:58.759Z,6.53
2022-11-21T12:02:52.082Z,6.51
2022-11-21T12:05:26.245Z,6.50
2022-11-21T12:11:29.060Z,6.50
2022-11-21T12:13:57.523Z,6.50
2022-11-21T12:16:27.920Z,6.50
2022-11-21T12:19:09.119Z,6.47
2022-11-21T12:21:35.852Z,6.48
2022-11-21T12:24:05.209Z,6.49
2022-11-21T12:26:44.085Z,6.50
2022-11-21T12:29:41.198Z,6.51
2022-11-21T12:32:26.870Z,6.55
2022-11-21T12:35:09.925Z,6.57
2022-11-21T12:38:07.927Z,6.55
2022-11-21T12:40:56.397Z,6.55
2022-11-21T12:43:53.091Z,6.55
2022-11-21T12:46:32.098Z,6.57
2022-11-21T12:49:53.203Z,6.57
2022-11-21T12:52:53.162Z,6.58
2022-11-21T12:55:24.340Z,6.62
2022-11-21T12:58:06.188Z,6.62
2022-11-21T13:01:15.460Z,6.62
2022-11-21T13:03:50.379Z,6.67
2022-11-21T13:06:23.807Z,6.68
2022-11-21T13:08:53.012Z,6.70
2022-11-21T13:11:58.704Z,6.74
2022-11-21T13:14:29.461Z,6.77
2022-11-21T13:17:09.870Z,6.78
2022-11-21T13:19:51.457Z,6.80
2022-11-21T13:22:36.632Z,6.82
2022-11-21T13:25:11.604Z,6.84
2022-11-21T13:27:40.622Z,6.87
2022-11-21T13:30:07.269Z,6.95
2022-11-21T13:32:40.488Z,7.04
2022-11-21T13:35:22.005Z,7.15
2022-11-21T13:38:07.162Z,7.28
2022-11-21T13:40:33.812Z,7.37
2022-11-21T13:45:59.633Z,7.67
2022-11-21T13:48:32.079Z,7.78
2022-11-21T13:51:32.895Z,7.87
2022-11-21T13:54:18.136Z,7.87
2022-11-21T13:57:00.084Z,7.86
2022-11-21T14:00:08.129Z,7.85
2022-11-21T14:03:05.760Z,7.82
2022-11-21T14:05:48.024Z,7.82
2022-11-21T14:08:18.340Z,7.82
2022-11-21T14:10:47.048Z,7.87
2022-11-21T14:13:28.325Z,7.93
2022-11-21T14:16:07.072Z,7.97
2022-11-21T14:18:35.986Z,8.00
2022-11-21T14:21:04.779Z,7.97
2022-11-21T14:23:33.510Z,7.96
2022-11-21T14:26:04.845Z,7.98
2022-11-21T14:28:33.814Z,7.94
2022-11-21T14:31:04.274Z,7.91
2022-11-21T14:33:38.006Z,7.90
2022-11-21T14:36:13.811Z,7.87
2022-11-21T14:38:45.385Z,7.80
2022-11-21T14:41:26.114Z,7.78
2022-11-21T14:43:58.921Z,7.83
2022-11-21T14:46:28.008Z,7.88
2022-11-21T14:48:57.315Z,7.95
2022-11-21T14:51:25.738Z,8.02
2022-11-21T14:53:53.757Z,8.09
2022-11-21T14:56:30.036Z,8.13
2022-11-21T14:58:59.313Z,8.15
2022-11-21T15:01:29.865Z,8.20
2022-11-21T15:03:57.789Z,8.24
2022-11-21T15:06:26.589Z,8.29
2022-11-21T15:10:11.514Z,8.31
2022-11-21T15:11:58.818Z,8.29
2022-11-21T15:14:55.008Z,8.27
2022-11-21T15:17:24.509Z,8.23
2022-11-21T15:20:23.566Z,8.16
2022-11-21T15:22:54.794Z,8.12
2022-11-21T15:25:25.653Z,8.06
2022-11-21T15:28:09.176Z,8.03
2022-11-21T15:30:38.192Z,7.98
2022-11-21T15:33:10.825Z,7.91
2022-11-21T15:35:40.733Z,7.88
2022-11-21T15:38:19.188Z,7.86
2022-11-21T15:41:25.511Z,7.81
2022-11-21T15:43:55.066Z,7.77
2022-11-21T15:46:30.889Z,7.76
2022-11-21T15:49:03.551Z,7.73
2022-11-21T15:52:06.000Z,7.71
2022-11-21T15:54:29.924Z,7.68
2022-11-21T15:56:56.754Z,7.66
2022-11-21T15:59:23.497Z,7.63
2022-11-21T16:01:50.368Z,7.60
2022-11-21T16:04:37.033Z,7.58
2022-11-21T16:07:03.909Z,7.55
2022-11-21T16:09:31.050Z,7.52
2022-11-21T16:11:57.902Z,7.47
2022-11-21T16:14:24.692Z,7.43
2022-11-21T16:16:51.368Z,7.39
2022-11-21T16:19:18.052Z,7.31
2022-11-21T16:21:44.854Z,7.23
2022-11-21T16:24:11.638Z,7.19
2022-11-21T16:26:38.380Z,7.13
2022-11-21T16:29:05.865Z,7.04
2022-11-21T16:31:33.339Z,6.97
2022-11-21T16:34:00.855Z,6.89
2022-11-21T16:36:29.911Z,6.86
2022-11-21T16:39:01.819Z,6.82
2022-11-21T16:41:30.695Z,6.79
2022-11-21T16:43:57.543Z,6.70
2022-11-21T16:46:24.954Z,6.64
2022-11-21T16:49:00.674Z,6.58
2022-11-21T16:51:28.369Z,6.53
2022-11-21T16:53:57.318Z,6.49
2022-11-21T16:56:24.809Z,6.43
2022-11-21T16:58:51.590Z,6.38
2022-11-21T17:01:20.701Z,6.33
2022-11-21T17:03:48.937Z,6.29
2022-11-21T17:06:23.972Z,6.27
2022-11-21T17:08:51.007Z,6.22
2022-11-21T17:11:22.074Z,6.18
2022-11-21T17:13:51.282Z,6.16
2022-11-21T17:16:21.722Z,6.13
2022-11-21T17:18:52.294Z,6.11
2022-11-21T17:21:19.023Z,6.06
2022-11-21T17:23:46.174Z,6.02
2022-11-21T17:26:15.299Z,5.99
2022-11-21T17:28:45.864Z,5.99
2022-11-21T17:31:15.245Z,5.97
2022-11-21T17:33:43.809Z,5.94
2022-11-21T17:36:12.710Z,5.92
2022-11-21T17:38:40.163Z,5.90
2022-11-21T17:41:10.011Z,5.88
2022-11-21T17:43:36.913Z,5.87
2022-11-21T17:46:10.470Z,5.86
2022-11-21T17:48:38.262Z,5.87
2022-11-21T17:51:06.547Z,5.85
2022-11-21T17:53:35.350Z,5.84
2022-11-21T17:56:03.652Z,5.84
2022-11-21T17:58:31.121Z,5.81
2022-11-21T18:00:59.953Z,5.80
2022-11-21T18:03:27.795Z,5.76
2022-11-21T18:06:06.639Z,5.75
2022-11-21T18:08:35.586Z,5.74
2022-11-21T18:11:03.217Z,5.75
2022-11-21T18:13:31.179Z,5.71
2022-11-21T18:16:02.855Z,5.69
2022-11-21T18:18:29.610Z,5.67
2022-11-21T18:21:08.946Z,5.65
2022-11-21T18:23:36.604Z,5.64
2022-11-21T18:26:06.189Z,5.65
2022-11-21T18:28:33.430Z,5.63
2022-11-21T18:31:15.234Z,5.61
2022-11-21T18:33:43.011Z,5.60
2022-11-21T18:36:11.373Z,5.60
2022-11-21T18:38:51.218Z,5.58
2022-11-21T18:41:26.865Z,5.56
2022-11-21T18:43:59.226Z,5.54
2022-11-21T18:46:26.880Z,5.52
2022-11-21T18:49:04.765Z,5.52
2022-11-21T18:51:32.930Z,5.50
2022-11-21T18:54:05.288Z,5.47
2022-11-21T18:56:32.075Z,5.46
2022-11-21T18:58:59.353Z,5.46
2022-11-21T19:01:28.999Z,5.44
2022-11-21T19:03:56.411Z,5.45
2022-11-21T19:06:24.789Z,5.44
2022-11-21T19:08:55.944Z,5.43
2022-11-21T19:11:27.173Z,5.46
2022-11-21T19:13:55.434Z,5.44
2022-11-21T19:16:25.025Z,5.43
2022-11-21T19:21:42.307Z,5.40
2022-11-21T19:24:14.265Z,5.39
2022-11-21T19:26:41.968Z,5.39
2022-11-21T19:29:09.328Z,5.36
2022-11-21T19:31:41.015Z,5.35
2022-11-21T19:34:11.419Z,5.34
2022-11-21T19:36:39.542Z,5.37
2022-11-21T19:39:06.459Z,5.34
2022-11-21T19:41:33.264Z,5.34
2022-11-21T19:44:01.404Z,5.33
2022-11-21T19:46:38.041Z,5.32
2022-11-21T19:49:06.377Z,5.33
2022-11-21T19:51:36.691Z,5.34
2022-11-21T19:54:06.053Z,5.33
2022-11-21T19:56:35.687Z,5.32
2022-11-21T19:59:02.438Z,5.33
2022-11-21T20:01:31.152Z,5.33
2022-11-21T20:04:00.141Z,5.33
2022-11-21T20:06:29.083Z,5.32
2022-11-21T20:08:58.017Z,5.32
2022-11-21T20:11:25.766Z,5.33
2022-11-21T20:13:52.490Z,5.33
2022-11-21T20:16:22.074Z,5.33
2022-11-21T20:18:49.784Z,5.32
2022-11-21T20:21:17.528Z,5.32
2022-11-21T20:23:46.208Z,5.31
2022-11-21T20:26:14.197Z,5.29
2022-11-21T20:28:41.010Z,5.31
2022-11-21T20:31:11.941Z,5.28
2022-11-21T20:33:45.942Z,5.29
2022-11-21T20:36:16.983Z,5.30
2022-11-21T20:38:51.669Z,5.30
2022-11-21T20:41:19.571Z,5.29
2022-11-21T20:44:41.687Z,5.28
2022-11-21T20:46:35.812Z,5.25
2022-11-21T20:49:02.681Z,5.24
2022-11-21T20:54:16.104Z,5.18
2022-11-21T20:56:44.542Z,5.16
2022-11-21T20:59:11.412Z,5.14
2022-11-21T21:01:38.312Z,5.12
2022-11-21T21:04:05.280Z,5.10
2022-11-21T21:06:32.141Z,5.07
2022-11-21T21:08:58.866Z,5.04
2022-11-21T21:14:12.316Z,5.02
2022-11-21T21:16:41.163Z,5.01
2022-11-21T21:19:07.874Z,4.99
2022-11-21T21:21:34.705Z,4.96
2022-11-21T21:24:06.459Z,4.93
2022-11-21T21:26:41.800Z,4.90
2022-11-21T21:29:11.383Z,4.88
2022-11-21T21:31:40.202Z,4.88
2022-11-21T21:34:09.939Z,4.86
2022-11-21T21:36:37.108Z,4.83
2022-11-21T21:39:04.170Z,4.83
2022-11-21T21:41:31.774Z,4.81
2022-11-21T21:43:58.947Z,4.78
2022-11-21T21:46:27.616Z,4.78
2022-11-21T21:49:14.367Z,4.77
2022-11-21T21:51:41.478Z,4.78
2022-11-21T21:54:17.603Z,4.77
2022-11-21T21:56:46.786Z,4.75
2022-11-21T21:59:15.081Z,4.77
2022-11-21T22:01:43.000Z,4.74
2022-11-21T22:04:11.380Z,4.72
2022-11-21T22:06:38.383Z,4.71
2022-11-21T22:09:05.179Z,4.69
2022-11-21T22:11:37.917Z,4.66
2022-11-21T22:14:10.560Z,4.64
2022-11-21T22:16:37.478Z,4.62
2022-11-21T22:19:04.947Z,4.60
2022-11-21T22:21:34.750Z,4.58
2022-11-21T22:24:27.306Z,4.56
2022-11-21T22:26:54.994Z,4.55
2022-11-21T22:29:21.918Z,4.52
2022-11-21T22:31:48.811Z,4.49
2022-11-21T22:34:15.801Z,4.48
2022-11-21T22:36:43.028Z,4.45
2022-11-21T22:39:09.839Z,4.41
2022-11-21T22:41:36.686Z,4.39
2022-11-21T22:44:03.463Z,4.37
2022-11-21T22:46:31.552Z,4.36
2022-11-21T22:49:00.661Z,4.31
2022-11-21T22:51:31.916Z,4.25
2022-11-21T22:53:58.687Z,4.20
2022-11-21T22:56:26.677Z,4.14
2022-11-21T22:58:53.903Z,4.11
2022-11-21T23:01:25.619Z,4.10
2022-11-21T23:03:52.925Z,4.12
2022-11-21T23:06:23.908Z,4.13
2022-11-21T23:08:51.981Z,4.09
2022-11-21T23:11:24.500Z,4.04
2022-11-21T23:13:52.811Z,4.05
2022-11-21T23:16:20.292Z,4.04
2022-11-21T23:18:47.206Z,4.04
2022-11-21T23:21:14.784Z,4.03
2022-11-21T23:23:41.675Z,4.03
2022-11-21T23:26:11.416Z,4.02
2022-11-21T23:28:38.138Z,3.99
2022-11-21T23:31:05.026Z,3.99
2022-11-21T23:33:31.763Z,3.95
2022-11-21T23:35:58.506Z,3.93
2022-11-21T23:38:25.280Z,3.91
2022-11-21T23:40:52.067Z,3.90
2022-11-21T23:43:19.286Z,3.89
2022-11-21T23:45:54.052Z,3.88
2022-11-21T23:48:21.925Z,3.88
2022-11-21T23:50:50.923Z,3.84
2022-11-21T23:53:18.902Z,3.80
2022-11-21T23:55:45.954Z,3.76
2022-11-21T23:58:13.072Z,3.74
